createdAt,value
2019-05-22T00:01:47.368Z,31.95
2019-05-22T00:04:41.022Z,30.23
2019-05-22T00:07:27.913Z,30.93
2019-05-22T00:10:18.889Z,29.52
2019-05-22T00:13:06.644Z,29.23
2019-05-22T00:15:51.221Z,29.87
2019-05-22T00:18:37.187Z,29.65
2019-05-22T00:21:22.310Z,31.05
2019-05-22T00:24:07.755Z,30.55
2019-05-22T00:26:55.403Z,30.95
2019-05-22T00:29:43.839Z,28.85
2019-05-22T00:32:29.125Z,29.60
2019-05-22T00:35:15.760Z,27.52
2019-05-22T00:38:03.470Z,29.52
2019-05-22T00:40:54.486Z,28.35
2019-05-22T00:43:41.479Z,26.93
2019-05-22T00:46:27.834Z,29.18
2019-05-22T00:49:13.214Z,28.52
2019-05-22T00:52:18.586Z,28.25
2019-05-22T00:55:09.152Z,28.47
2019-05-22T00:58:02.065Z,28.65
2019-05-22T01:00:49.330Z,29.42
2019-05-22T01:03:36.011Z,27.13
2019-05-22T01:06:22.169Z,28.12
2019-05-22T01:09:09.338Z,28.35
2019-05-22T01:11:55.042Z,28.35
2019-05-22T01:14:43.096Z,28.32
2019-05-22T01:17:31.587Z,27.40
2019-05-22T01:20:20.470Z,27.87
2019-05-22T01:23:07.637Z,27.58
2019-05-22T01:25:52.735Z,26.77
2019-05-22T01:28:38.440Z,28.02
2019-05-22T01:31:28.847Z,26.10
2019-05-22T01:34:15.784Z,25.75
2019-05-22T01:37:01.327Z,26.17
2019-05-22T01:39:54.960Z,29.15
2019-05-22T01:42:42.306Z,27.52
2019-05-22T01:45:27.522Z,27.17
2019-05-22T01:48:16.569Z,27.75
2019-05-22T01:51:04.830Z,27.75
2019-05-22T01:53:51.207Z,29.32
2019-05-22T01:56:38.256Z,27.32
2019-05-22T01:59:25.899Z,28.27
2019-05-22T02:02:13.208Z,26.62
2019-05-22T02:04:58.853Z,25.32
2019-05-22T02:07:44.963Z,26.17
2019-05-22T02:10:39.473Z,26.80
2019-05-22T02:13:36.093Z,25.60
2019-05-22T02:16:23.499Z,27.40
2019-05-22T02:19:09.685Z,24.98
2019-05-22T02:21:54.563Z,21.02
2019-05-22T02:24:40.831Z,25.43
2019-05-22T02:27:27.134Z,24.23
2019-05-22T02:30:13.676Z,24.30
2019-05-22T02:33:01.475Z,25.45
2019-05-22T02:35:48.555Z,27.62
2019-05-22T02:38:34.450Z,24.75
2019-05-22T02:41:19.840Z,25.45
2019-05-22T02:44:05.259Z,25.75
2019-05-22T02:46:50.577Z,26.60
2019-05-22T02:49:37.235Z,26.45
2019-05-22T02:52:22.202Z,27.93
2019-05-22T02:55:08.082Z,26.35
2019-05-22T02:57:53.493Z,27.70
2019-05-22T03:00:57.637Z,27.85
2019-05-22T03:03:45.130Z,27.25
2019-05-22T03:06:30.142Z,26.93
2019-05-22T03:09:22.127Z,27.42
2019-05-22T03:12:08.214Z,28.92
2019-05-22T03:14:53.987Z,28.40
2019-05-22T03:17:40.238Z,28.50
2019-05-22T03:20:25.970Z,25.25
2019-05-22T03:23:26.861Z,27.07
2019-05-22T03:26:14.280Z,27.50
2019-05-22T03:29:00.130Z,27.05
2019-05-22T03:31:45.252Z,25.80
2019-05-22T03:34:30.467Z,28.40
2019-05-22T03:37:16.785Z,26.80
2019-05-22T03:40:06.770Z,27.00
2019-05-22T03:42:52.195Z,27.13
2019-05-22T03:45:39.249Z,27.40
2019-05-22T03:48:26.701Z,26.82
2019-05-22T03:51:13.801Z,26.95
2019-05-22T03:53:59.751Z,26.57
2019-05-22T03:56:45.921Z,26.23
2019-05-22T03:59:31.188Z,26.82
2019-05-22T04:02:18.844Z,26.20
2019-05-22T04:05:06.567Z,26.23
2019-05-22T04:07:53.008Z,25.62
2019-05-22T04:10:41.867Z,25.60
2019-05-22T04:13:27.634Z,25.12
2019-05-22T04:16:18.813Z,24.82
2019-05-22T04:19:04.540Z,24.65
2019-05-22T04:21:50.257Z,24.45
2019-05-22T04:24:38.619Z,24.18
2019-05-22T04:27:23.841Z,24.05
2019-05-22T04:30:12.349Z,23.18
2019-05-22T04:32:57.840Z,24.23
2019-05-22T04:35:43.269Z,25.00
2019-05-22T04:38:29.188Z,25.77
2019-05-22T04:41:14.567Z,24.52
2019-05-22T04:44:00.636Z,25.80
2019-05-22T04:46:45.635Z,22.05
2019-05-22T04:49:30.549Z,23.07
2019-05-22T04:52:15.954Z,22.80
2019-05-22T04:55:01.185Z,22.27
2019-05-22T04:57:46.677Z,23.60
2019-05-22T05:00:51.514Z,22.05
2019-05-22T05:03:38.150Z,22.62
2019-05-22T05:06:23.699Z,20.70
2019-05-22T05:09:09.457Z,20.68
2019-05-22T05:11:55.040Z,22.35
2019-05-22T05:14:40.805Z,20.62
2019-05-22T05:17:26.310Z,20.48
2019-05-22T05:20:22.226Z,19.40
2019-05-22T05:22:58.390Z,19.60
2019-05-22T05:25:44.047Z,19.17
2019-05-22T05:28:29.608Z,18.35
2019-05-22T05:31:16.239Z,18.70
2019-05-22T05:34:20.030Z,19.40
2019-05-22T05:37:07.397Z,18.60
2019-05-22T05:39:58.747Z,17.85
2019-05-22T05:42:44.077Z,17.85
2019-05-22T05:45:30.032Z,17.12
2019-05-22T05:48:18.092Z,18.70
2019-05-22T05:51:07.713Z,17.35
2019-05-22T05:54:05.762Z,16.57
2019-05-22T05:56:52.786Z,17.73
2019-05-22T05:59:38.642Z,16.60
2019-05-22T06:02:24.654Z,17.55
2019-05-22T06:05:10.096Z,16.93
2019-05-22T06:07:54.905Z,16.60
2019-05-22T06:10:56.512Z,16.27
2019-05-22T06:13:41.675Z,16.87
2019-05-22T06:16:45.474Z,16.65
2019-05-22T06:19:34.867Z,16.45
2019-05-22T06:22:20.932Z,15.85
2019-05-22T06:25:07.881Z,15.15
2019-05-22T06:27:55.203Z,15.08
2019-05-22T06:30:44.001Z,15.18
2019-05-22T06:33:34.106Z,14.75
2019-05-22T06:36:20.826Z,14.65
2019-05-22T06:39:07.518Z,14.78
2019-05-22T06:41:52.796Z,13.98
2019-05-22T06:44:38.421Z,14.13
2019-05-22T06:47:25.083Z,13.80
2019-05-22T06:50:10.349Z,14.23
2019-05-22T06:53:09.063Z,12.90
2019-05-22T06:55:42.586Z,12.85
2019-05-22T06:58:28.030Z,13.13
2019-05-22T07:01:13.088Z,13.50
2019-05-22T07:03:57.749Z,12.90
2019-05-22T07:06:43.631Z,13.25
2019-05-22T07:09:29.381Z,13.30
2019-05-22T07:12:16.655Z,12.07
2019-05-22T07:15:10.375Z,12.80
2019-05-22T07:20:44.094Z,11.73
2019-05-22T07:23:31.297Z,13.55
2019-05-22T07:26:15.988Z,13.30
2019-05-22T07:29:05.071Z,12.80
2019-05-22T07:31:49.547Z,13.15
2019-05-22T07:34:35.138Z,13.38
2019-05-22T07:37:22.255Z,12.55
2019-05-22T07:40:07.905Z,12.37
2019-05-22T07:42:53.312Z,11.70
2019-05-22T07:45:40.303Z,12.43
2019-05-22T07:48:25.883Z,12.45
2019-05-22T07:51:12.103Z,12.78
2019-05-22T07:53:57.118Z,12.85
2019-05-22T07:56:42.879Z,13.25
2019-05-22T07:59:28.286Z,12.63
2019-05-22T08:02:14.578Z,12.98
2019-05-22T08:05:00.001Z,14.23
2019-05-22T08:07:45.569Z,13.13
2019-05-22T08:10:31.099Z,13.65
2019-05-22T08:13:19.263Z,13.62
2019-05-22T08:16:05.488Z,13.25
2019-05-22T08:18:51.130Z,12.73
2019-05-22T08:21:36.287Z,13.65
2019-05-22T08:24:21.615Z,14.33
2019-05-22T08:27:07.215Z,13.28
2019-05-22T08:29:56.328Z,12.93
2019-05-22T08:32:39.925Z,13.58
2019-05-22T08:35:24.999Z,13.72
2019-05-22T08:38:10.072Z,13.58
2019-05-22T08:40:58.176Z,13.25
2019-05-22T08:44:11.412Z,13.60
2019-05-22T08:46:31.536Z,13.75
2019-05-22T08:49:16.895Z,14.05
2019-05-22T08:52:02.108Z,12.45
2019-05-22T08:54:48.275Z,11.63
2019-05-22T08:57:34.612Z,12.47
2019-05-22T09:00:22.066Z,11.28
2019-05-22T09:03:07.551Z,11.60
2019-05-22T09:05:52.680Z,10.85
2019-05-22T09:08:38.297Z,11.80
2019-05-22T09:11:23.449Z,11.73
2019-05-22T09:14:08.187Z,11.00
2019-05-22T09:16:54.027Z,10.88
2019-05-22T09:19:38.805Z,9.88
2019-05-22T09:22:37.810Z,10.05
2019-05-22T09:25:11.792Z,8.78
2019-05-22T09:27:57.707Z,10.90
2019-05-22T09:30:43.004Z,10.93
2019-05-22T09:33:28.220Z,10.48
2019-05-22T09:36:13.337Z,11.20
2019-05-22T09:38:58.555Z,10.50
2019-05-22T09:41:43.464Z,11.35
2019-05-22T09:44:28.248Z,10.93
2019-05-22T09:47:13.339Z,10.55
2019-05-22T09:49:59.226Z,9.93
2019-05-22T09:52:56.911Z,9.98
2019-05-22T09:55:34.113Z,10.38
2019-05-22T09:58:19.480Z,9.10
2019-05-22T10:01:06.188Z,9.80
2019-05-22T10:03:51.597Z,9.48
2019-05-22T10:06:36.601Z,9.68
2019-05-22T10:09:22.002Z,8.90
2019-05-22T10:12:08.218Z,9.75
2019-05-22T10:14:53.328Z,9.00
2019-05-22T10:17:41.943Z,9.70
2019-05-22T10:20:27.540Z,9.65
2019-05-22T10:23:15.992Z,9.15
2019-05-22T10:26:01.065Z,9.05
2019-05-22T10:28:45.919Z,9.45
2019-05-22T10:31:31.082Z,9.43
2019-05-22T10:34:16.479Z,9.25
2019-05-22T10:37:02.558Z,9.05
2019-05-22T10:39:48.404Z,9.93
2019-05-22T10:42:33.545Z,8.85
2019-05-22T10:45:19.097Z,10.20
2019-05-22T10:48:04.392Z,9.98
2019-05-22T10:50:50.042Z,10.63
2019-05-22T10:53:35.830Z,10.10
2019-05-22T10:56:20.799Z,10.03
2019-05-22T10:59:06.162Z,10.82
2019-05-22T11:01:51.714Z,9.23
2019-05-22T11:04:36.938Z,8.55
2019-05-22T11:07:22.822Z,7.87
2019-05-22T11:10:09.066Z,7.90
2019-05-22T11:12:53.746Z,7.72
2019-05-22T11:15:38.698Z,7.62
2019-05-22T11:18:24.116Z,7.17
2019-05-22T11:21:10.594Z,7.35
2019-05-22T11:23:56.420Z,6.92
2019-05-22T11:26:41.956Z,6.10
2019-05-22T11:29:27.231Z,7.10
2019-05-22T11:32:12.507Z,7.08
2019-05-22T11:34:57.635Z,6.95
2019-05-22T11:37:42.837Z,6.20
2019-05-22T11:40:27.876Z,6.10
2019-05-22T11:43:14.419Z,6.35
2019-05-22T11:45:59.586Z,6.50
2019-05-22T11:48:44.699Z,6.12
2019-05-22T11:51:30.219Z,6.33
2019-05-22T11:54:15.222Z,5.97
2019-05-22T11:57:00.446Z,6.30
2019-05-22T11:59:45.973Z,5.83
2019-05-22T12:02:31.298Z,6.75
2019-05-22T12:05:17.357Z,6.35
2019-05-22T12:08:03.851Z,6.08
2019-05-22T12:10:50.022Z,5.92
2019-05-22T12:13:35.114Z,5.85
2019-05-22T12:16:20.415Z,5.50
2019-05-22T12:19:05.487Z,4.95
2019-05-22T12:21:50.958Z,4.62
2019-05-22T12:24:37.609Z,4.60
2019-05-22T12:27:23.163Z,4.75
2019-05-22T12:30:10.058Z,3.65
2019-05-22T12:32:56.507Z,3.83
2019-05-22T12:35:42.681Z,3.55
2019-05-22T12:38:28.993Z,3.00
2019-05-22T12:41:16.813Z,3.10
2019-05-22T12:44:02.869Z,3.35
2019-05-22T12:46:49.156Z,2.90
2019-05-22T12:49:34.680Z,3.27
2019-05-22T12:52:19.962Z,3.45
2019-05-22T12:55:06.184Z,3.58
2019-05-22T12:57:51.518Z,3.85
2019-05-22T13:00:37.047Z,3.50
2019-05-22T13:03:24.348Z,3.72
2019-05-22T13:06:09.776Z,3.50
2019-05-22T13:08:56.320Z,6.25
2019-05-22T13:11:41.385Z,6.03
2019-05-22T13:14:26.654Z,7.17
2019-05-22T13:17:15.159Z,6.78
2019-05-22T13:20:02.113Z,6.65
2019-05-22T13:22:48.278Z,7.20
2019-05-22T13:25:36.422Z,6.65
2019-05-22T13:28:24.187Z,6.67
2019-05-22T13:31:09.800Z,6.87
2019-05-22T13:33:55.139Z,7.28
2019-05-22T13:36:40.950Z,6.25
2019-05-22T13:39:26.785Z,6.97
2019-05-22T13:42:13.588Z,7.30
2019-05-22T13:44:58.736Z,7.20
2019-05-22T13:47:44.025Z,6.45
2019-05-22T13:50:29.788Z,7.35
2019-05-22T13:53:17.301Z,8.13
2019-05-22T13:56:04.204Z,6.58
2019-05-22T13:58:49.135Z,6.95
2019-05-22T14:01:34.385Z,6.37
2019-05-22T14:04:19.657Z,5.53
2019-05-22T14:07:05.563Z,6.17
2019-05-22T14:09:52.349Z,6.58
2019-05-22T14:12:37.363Z,6.67
2019-05-22T14:15:24.887Z,6.10
2019-05-22T14:18:10.982Z,5.62
2019-05-22T14:20:56.405Z,5.58
2019-05-22T14:23:41.485Z,5.45
2019-05-22T14:26:29.711Z,4.87
2019-05-22T14:29:13.268Z,5.42
2019-05-22T14:31:58.845Z,4.70
2019-05-22T14:34:44.601Z,4.72
2019-05-22T14:37:29.739Z,3.62
2019-05-22T14:40:15.672Z,4.17
2019-05-22T14:43:00.622Z,3.80
2019-05-22T14:45:45.922Z,3.90
2019-05-22T14:48:31.266Z,2.70
2019-05-22T14:51:16.613Z,3.10
2019-05-22T14:54:03.218Z,3.10
2019-05-22T14:56:48.803Z,2.33
2019-05-22T14:59:34.571Z,2.65
2019-05-22T15:02:20.718Z,2.30
2019-05-22T15:05:06.333Z,1.98
2019-05-22T15:07:51.935Z,1.90
2019-05-22T15:10:37.597Z,2.37
2019-05-22T15:13:23.051Z,2.72
2019-05-22T15:16:08.015Z,2.52
2019-05-22T15:18:52.911Z,2.27
2019-05-22T15:21:38.717Z,2.40
2019-05-22T15:24:25.326Z,2.52
2019-05-22T15:27:11.830Z,2.35
2019-05-22T15:29:57.041Z,2.05
2019-05-22T15:32:43.214Z,2.47
2019-05-22T15:35:29.120Z,2.20
2019-05-22T15:38:15.602Z,2.37
2019-05-22T15:41:01.065Z,2.52
2019-05-22T15:43:52.577Z,2.33
2019-05-22T15:46:36.151Z,2.35
2019-05-22T15:49:22.095Z,2.47
2019-05-22T15:52:11.563Z,2.85
2019-05-22T15:54:56.742Z,2.50
2019-05-22T15:57:41.970Z,2.60
2019-05-22T16:00:30.702Z,2.67
2019-05-22T16:03:20.407Z,2.10
2019-05-22T16:06:08.852Z,2.45
2019-05-22T16:08:54.342Z,2.20
2019-05-22T16:11:39.914Z,2.45
2019-05-22T16:14:26.897Z,2.60
2019-05-22T16:17:12.314Z,2.90
2019-05-22T16:19:58.090Z,2.17
2019-05-22T16:22:43.512Z,2.55
2019-05-22T16:25:29.314Z,2.50
2019-05-22T16:28:14.745Z,2.20
2019-05-22T16:30:59.917Z,2.67
2019-05-22T16:33:45.859Z,2.20
2019-05-22T16:36:31.886Z,2.17
2019-05-22T16:39:17.681Z,2.50
2019-05-22T16:42:03.075Z,2.58
2019-05-22T16:44:48.318Z,2.85
2019-05-22T16:47:54.506Z,2.50
2019-05-22T16:50:40.287Z,2.67
2019-05-22T16:53:25.568Z,2.60
2019-05-22T16:56:11.319Z,3.52
2019-05-22T16:58:56.698Z,3.37
2019-05-22T17:01:57.631Z,3.15
2019-05-22T17:04:33.800Z,3.12
2019-05-22T17:07:19.713Z,3.20
2019-05-22T17:10:06.805Z,3.40
2019-05-22T17:12:52.202Z,3.27
2019-05-22T17:15:38.361Z,2.95
2019-05-22T17:18:25.897Z,3.08
2019-05-22T17:21:11.562Z,3.27
2019-05-22T17:23:57.409Z,4.05
2019-05-22T17:26:42.315Z,3.60
2019-05-22T17:29:27.789Z,3.37
2019-05-22T17:32:13.322Z,4.00
2019-05-22T17:34:59.550Z,4.00
2019-05-22T17:37:45.439Z,4.53
2019-05-22T17:40:30.561Z,5.37
2019-05-22T17:43:16.354Z,4.95
2019-05-22T17:46:01.380Z,4.70
2019-05-22T17:48:47.395Z,4.65
2019-05-22T17:51:32.690Z,4.67
2019-05-22T17:54:19.912Z,5.30
2019-05-22T17:57:07.074Z,5.15
2019-05-22T17:59:52.994Z,5.25
2019-05-22T18:02:39.355Z,4.95
2019-05-22T18:05:26.469Z,4.78
2019-05-22T18:08:12.055Z,5.03
2019-05-22T18:10:57.721Z,5.70
2019-05-22T18:13:55.796Z,5.33
2019-05-22T18:16:41.855Z,4.62
2019-05-22T18:19:27.403Z,5.28
2019-05-22T18:22:14.329Z,5.67
2019-05-22T18:24:59.819Z,5.72
2019-05-22T18:27:45.286Z,6.03
2019-05-22T18:30:32.009Z,6.12
2019-05-22T18:33:17.121Z,6.00
2019-05-22T18:36:02.459Z,6.53
2019-05-22T18:38:47.662Z,6.05
2019-05-22T18:41:32.638Z,6.72
2019-05-22T18:44:17.560Z,6.20
2019-05-22T18:47:03.585Z,7.05
2019-05-22T18:49:48.681Z,6.15
2019-05-22T18:52:41.198Z,7.58
2019-05-22T18:55:20.211Z,6.37
2019-05-22T18:58:06.957Z,7.40
2019-05-22T19:00:52.138Z,7.60
2019-05-22T19:03:37.243Z,8.13
2019-05-22T19:06:30.326Z,8.88
2019-05-22T19:09:10.118Z,9.58
2019-05-22T19:11:55.446Z,8.98
2019-05-22T19:14:40.687Z,8.10
2019-05-22T19:17:26.359Z,6.97
2019-05-22T19:20:12.195Z,6.25
2019-05-22T19:23:00.905Z,6.35
2019-05-22T19:25:43.786Z,6.45
2019-05-22T19:28:42.735Z,6.90
2019-05-22T19:31:16.459Z,6.67
2019-05-22T19:34:01.791Z,7.08
2019-05-22T19:36:46.869Z,6.08
2019-05-22T19:39:33.411Z,6.42
2019-05-22T19:42:18.181Z,6.40
2019-05-22T19:45:06.635Z,6.30
2019-05-22T19:47:56.226Z,6.45
2019-05-22T19:50:41.948Z,9.83
2019-05-22T19:53:27.799Z,10.23
2019-05-22T19:56:12.910Z,8.18
2019-05-22T19:58:58.541Z,7.12
2019-05-22T20:01:44.727Z,6.25
2019-05-22T20:04:30.058Z,6.25
2019-05-22T20:07:15.050Z,6.83
2019-05-22T20:10:00.586Z,6.62
2019-05-22T20:12:45.452Z,6.67
2019-05-22T20:15:32.057Z,6.15
2019-05-22T20:18:18.166Z,6.30
2019-05-22T20:21:03.879Z,6.22
2019-05-22T20:23:49.112Z,6.58
2019-05-22T20:26:34.161Z,6.05
2019-05-22T20:29:19.358Z,6.30
2019-05-22T20:32:07.213Z,6.17
2019-05-22T20:34:51.783Z,6.12
2019-05-22T20:37:37.688Z,6.60
2019-05-22T20:40:24.484Z,5.97
2019-05-22T20:43:10.831Z,6.92
2019-05-22T20:45:57.464Z,6.53
2019-05-22T20:48:42.628Z,7.35
2019-05-22T20:51:28.484Z,7.17
2019-05-22T20:54:14.555Z,6.22
2019-05-22T20:57:00.040Z,7.10
2019-05-22T20:59:45.653Z,7.55
2019-05-22T21:02:30.493Z,6.72
2019-05-22T21:05:19.119Z,6.80
2019-05-22T21:08:07.471Z,6.85
2019-05-22T21:10:53.737Z,7.28
2019-05-22T21:13:39.208Z,7.10
2019-05-22T21:16:24.012Z,6.67
2019-05-22T21:19:10.433Z,6.95
2019-05-22T21:21:57.502Z,7.53
2019-05-22T21:24:42.515Z,7.75
2019-05-22T21:27:28.524Z,7.35
2019-05-22T21:30:14.985Z,7.12
2019-05-22T21:33:01.378Z,8.08
2019-05-22T21:35:46.427Z,7.25
2019-05-22T21:38:32.723Z,7.45
2019-05-22T21:41:20.527Z,9.00
2019-05-22T21:44:06.045Z,8.45
2019-05-22T21:46:52.580Z,6.92
2019-05-22T21:49:38.939Z,8.03
2019-05-22T21:52:24.785Z,8.83
2019-05-22T21:55:12.506Z,7.72
2019-05-22T21:57:57.838Z,7.92
2019-05-22T22:00:47.857Z,8.18
2019-05-22T22:03:40.939Z,7.95
2019-05-22T22:06:27.323Z,8.63
2019-05-22T22:09:13.903Z,8.58
2019-05-22T22:12:00.650Z,8.18
2019-05-22T22:14:47.887Z,9.38
2019-05-22T22:17:34.518Z,8.75
2019-05-22T22:20:20.133Z,9.95
2019-05-22T22:23:05.865Z,8.70
2019-05-22T22:25:50.913Z,8.73
2019-05-22T22:28:36.093Z,8.75
2019-05-22T22:31:23.368Z,8.05
2019-05-22T22:34:16.654Z,8.50
2019-05-22T22:37:03.770Z,8.90
2019-05-22T22:39:53.896Z,8.48
2019-05-22T22:42:40.675Z,8.20
2019-05-22T22:45:33.215Z,8.95
2019-05-22T22:48:32.532Z,9.10
2019-05-22T22:51:19.561Z,8.35
2019-05-22T22:54:06.147Z,8.20
2019-05-22T22:56:51.182Z,8.23
2019-05-22T22:59:36.936Z,8.65
2019-05-22T23:02:25.511Z,8.35
2019-05-22T23:05:11.435Z,9.00
2019-05-22T23:07:58.807Z,8.68
2019-05-22T23:10:43.979Z,8.43
2019-05-22T23:13:29.388Z,8.28
2019-05-22T23:16:16.508Z,8.78
2019-05-22T23:19:12.609Z,8.55
2019-05-22T23:21:58.102Z,8.63
2019-05-22T23:24:45.476Z,8.93
2019-05-22T23:27:33.320Z,9.03
2019-05-22T23:30:19.846Z,9.73
2019-05-22T23:33:04.839Z,8.48
2019-05-22T23:35:50.647Z,8.68
2019-05-22T23:38:37.761Z,9.98
2019-05-22T23:41:25.672Z,10.20
2019-05-22T23:44:10.890Z,9.75
2019-05-22T23:46:55.979Z,8.38
2019-05-22T23:49:42.038Z,8.35
2019-05-22T23:52:27.344Z,9.90
2019-05-22T23:55:14.369Z,9.50
2019-05-22T23:58:01.715Z,10.15
